CDT,Max TemperatureF,Mean TemperatureF,Min TemperatureF,Max Dew PointF,MeanDew PointF,Min DewpointF,Max Humidity, Mean Humidity, Min Humidity, Max Sea Level PressureIn, Mean Sea Level PressureIn, Min Sea Level PressureIn, Max VisibilityMiles, Mean VisibilityMiles, Min VisibilityMiles, Max Wind SpeedMPH, Mean Wind SpeedMPH, Max Gust SpeedMPH,PrecipitationIn, CloudCover, Events, WindDirDegrees
2014-4-1,73,60,48,61,52,43,88,73,52,30.09,30.01,29.95,10,10,7,16,7,22,0.00,1,,189
2014-4-2,71,65,59,64,61,55,94,87,78,29.97,29.92,29.85,10,9,5,20,8,24,0.10,7,Thunderstorm,169
2014-4-3,78,70,60,68,64,55,94,78,64,29.84,29.74,29.64,10,10,9,29,17,36,0.25,4,Thunderstorm,193
2014-4-4,59,52,42,55,40,34,88,63,44,30.16,29.95,29.67,10,10,5,25,13,32,0.91,1,Thunderstorm,304
2014-4-5,53,45,37,39,34,27,81,64,51,30.24,30.17,30.11,10,10,10,15,7,,0.00,0,,39
2014-4-6,44,43,42,37,37,36,81,79,71,30.11,30.10,30.08,10,10,9,9,4,,0.00,0,,12
2014-4-7,,,,,,,,,,,,,,,,,,,,,,
2014-4-8,,,,,,,,,,,,,,,,,,,,,,
2014-4-9,,,,,,,,,,,,,,,,,,,,,,
2014-4-10,,,,,,,,,,,,,,,,,,,,,,
2014-4-11,,,,,,,,,,,,,,,,,,,,,,
2014-4-12,,,,,,,,,,,,,,,,,,,,,,
2014-4-13,,,,,,,,,,,,,,,,,,,,,,
2014-4-14,,,,,,,,,,,,,,,,,,,,,,
2014-4-15,,,,,,,,,,,,,,,,,,,,,,
2014-4-16,57,50,44,37,34,28,71,50,38,30.31,30.17,30.11,10,10,10,13,9,17,0.00,0,,144
2014-4-17,66,52,39,48,40,10,87,61,17,30.30,30.23,30.16,10,10,10,13,4,,0.00,0,,146
2014-4-18,71,60,50,50,47,43,88,61,38,30.28,30.22,30.17,10,10,2,13,5,18,0.00,0,Thunderstorm,38
2014-4-19,75,62,48,52,47,43,82,58,34,30.26,30.20,30.14,10,10,9,8,6,,0.00,0,,36
2014-4-20,78,64,50,54,49,43,82,60,32,30.22,30.15,30.07,10,10,10,13,5,,0.00,0,,154
2014-4-21,73,66,60,63,57,52,88,76,61,30.07,30.01,29.93,10,10,5,12,6,,0.06,2,Thunderstorm,196
2014-4-22,75,66,55,59,50,39,88,59,27,30.00,29.95,29.91,10,9,3,17,8,22,0.00,1,,354
2014-4-23,73,60,46,43,39,36,76,48,25,30.08,30.00,29.92,10,10,8,10,6,,0.00,0,,71
2014-4-24,77,64,51,61,48,36,94,59,35,29.93,29.80,29.62,10,10,3,24,11,37,0.81,1,Thunderstorm,173
2014-4-25,73,62,51,55,50,45,82,63,41,30.03,29.93,29.74,10,10,10,17,10,21,0.01,1,,252
2014-4-26,78,64,51,57,52,46,88,64,42,29.98,29.90,29.80,10,10,9,14,7,18,0.00,0,,174
2014-4-27,69,66,64,64,60,54,94,81,64,29.80,29.67,29.48,10,10,3,30,14,39,2.65,4,Thunderstorm,149
2014-4-28,77,68,59,68,57,45,94,70,41,29.61,29.53,29.48,10,10,3,25,13,32,1.07,2,Thunderstorm,195
2014-4-29,69,61,53,48,45,39,72,61,38,29.83,29.66,29.57,10,10,10,24,11,31,0.00,0,,231
2014-4-30,59,52,46,41,35,19,71,53,31,30.03,29.93,29.83,10,10,10,16,10,22,0.00,4,,278